createdAt,value
2022-09-27T00:01:20.664Z,99288.40
2022-09-27T00:06:24.918Z,99290.80
2022-09-27T00:11:30.452Z,99286.80
2022-09-27T00:16:34.250Z,99288.40
2022-09-27T00:21:33.802Z,99284.20
2022-09-27T00:26:34.447Z,99279.80
2022-09-27T00:31:34.679Z,99280.40
2022-09-27T00:36:40.237Z,99280.20
2022-09-27T00:41:41.517Z,99273.00
2022-09-27T00:46:46.899Z,99266.40
2022-09-27T00:51:55.525Z,99258.20
2022-09-27T00:56:56.141Z,99250.80
2022-09-27T01:01:56.558Z,99248.40
2022-09-27T01:06:55.567Z,99243.20
2022-09-27T01:12:08.776Z,99246.20
2022-09-27T01:17:25.173Z,99238.00
2022-09-27T01:22:30.935Z,99230.00
2022-09-27T01:28:40.165Z,99231.60
2022-09-27T01:33:50.287Z,99231.00
2022-09-27T01:39:08.087Z,99234.40
2022-09-27T01:44:32.934Z,99232.80
2022-09-27T01:49:47.242Z,99232.00
2022-09-27T01:54:55.160Z,99227.00
2022-09-27T02:00:08.686Z,99226.00
2022-09-27T02:05:20.978Z,99220.60
2022-09-27T02:10:29.434Z,99215.60
2022-09-27T02:15:36.881Z,99218.60
2022-09-27T02:21:00.428Z,99212.00
2022-09-27T02:26:06.601Z,99205.40
2022-09-27T02:31:06.718Z,99199.80
2022-09-27T02:36:11.844Z,99200.00
2022-09-27T02:41:19.319Z,99204.80
2022-09-27T02:46:50.238Z,99195.00
2022-09-27T02:52:03.117Z,99189.40
2022-09-27T02:57:24.102Z,99186.40
2022-09-27T03:03:00.825Z,99191.20
2022-09-27T03:08:12.255Z,99186.80
2022-09-27T03:13:11.481Z,99185.80
2022-09-27T03:18:11.148Z,99177.40
2022-09-27T03:23:29.202Z,99173.80
2022-09-27T03:28:31.294Z,99174.60
2022-09-27T03:33:32.197Z,99179.60
2022-09-27T03:38:33.127Z,99178.80
2022-09-27T03:43:32.845Z,99173.40
2022-09-27T03:48:34.665Z,99164.80
2022-09-27T03:53:34.395Z,99160.60
2022-09-27T03:58:33.567Z,99153.60
2022-09-27T04:03:34.120Z,99146.20
2022-09-27T04:08:59.601Z,99148.40
2022-09-27T04:14:06.812Z,99138.00
2022-09-27T04:19:11.076Z,99134.60
2022-09-27T04:24:12.221Z,99132.40
2022-09-27T04:29:13.285Z,99124.00
2022-09-27T04:34:14.136Z,99130.80
2022-09-27T04:39:16.103Z,99135.80
2022-09-27T04:44:19.020Z,99131.20
2022-09-27T04:49:21.947Z,99129.80
2022-09-27T04:54:20.923Z,99135.80
2022-09-27T04:59:28.130Z,99135.60
2022-09-27T05:04:27.177Z,99131.40
2022-09-27T05:09:26.530Z,99137.60
2022-09-27T05:14:29.752Z,99139.40
2022-09-27T05:19:58.538Z,99139.40
2022-09-27T05:25:14.519Z,99138.00
2022-09-27T05:30:16.083Z,99137.60
2022-09-27T05:35:24.429Z,99121.20
2022-09-27T05:40:42.249Z,99130.20
2022-09-27T05:45:43.748Z,99131.00
2022-09-27T05:50:43.214Z,99128.80
2022-09-27T05:55:44.364Z,99130.40
2022-09-27T06:00:45.430Z,99118.40
2022-09-27T06:06:07.264Z,99123.20
2022-09-27T06:11:19.288Z,99119.60
2022-09-27T06:16:19.814Z,99127.00
2022-09-27T06:21:18.666Z,99140.80
2022-09-27T06:26:27.210Z,99140.80
2022-09-27T06:31:44.932Z,99136.20
2022-09-27T06:36:57.393Z,99139.60
2022-09-27T06:42:00.051Z,99138.00
2022-09-27T06:47:23.939Z,99133.60
2022-09-27T06:52:37.858Z,99134.80
2022-09-27T06:57:54.456Z,99137.60
2022-09-27T07:02:54.378Z,99136.40
2022-09-27T07:08:22.532Z,99131.60
2022-09-27T07:13:21.402Z,99113.00
2022-09-27T07:18:21.042Z,99107.80
2022-09-27T07:23:20.697Z,99133.60
2022-09-27T07:28:22.483Z,99146.00
2022-09-27T07:33:24.260Z,99152.20
2022-09-27T07:38:23.240Z,99155.60
2022-09-27T07:43:24.042Z,99150.00
2022-09-27T07:48:23.760Z,99155.40
2022-09-27T07:53:37.643Z,99154.40
2022-09-27T07:59:02.338Z,99154.80
2022-09-27T08:04:02.370Z,99152.80
2022-09-27T08:09:01.961Z,99147.80
2022-09-27T08:14:01.114Z,99133.80
2022-09-27T08:19:03.132Z,99136.80
2022-09-27T08:24:20.994Z,99132.80
2022-09-27T08:29:53.656Z,99137.20
2022-09-27T08:34:53.190Z,99132.00
2022-09-27T08:39:53.715Z,99127.40
2022-09-27T08:45:04.488Z,99133.40
2022-09-27T08:50:19.764Z,99142.20
2022-09-27T08:55:32.111Z,99148.00
2022-09-27T09:00:35.280Z,99154.60
2022-09-27T09:05:38.279Z,99155.60
2022-09-27T09:11:10.172Z,99159.00
2022-09-27T09:16:28.669Z,99154.80
2022-09-27T09:21:43.765Z,99148.80
2022-09-27T09:26:57.682Z,99148.20
2022-09-27T09:32:09.710Z,99148.00
2022-09-27T09:37:17.805Z,99142.20
2022-09-27T09:42:25.319Z,99137.60
2022-09-27T09:47:37.135Z,99126.40
2022-09-27T09:52:48.267Z,99118.00
2022-09-27T09:58:15.432Z,99112.00
2022-09-27T10:03:19.162Z,99107.00
2022-09-27T10:08:24.377Z,99110.60
2022-09-27T10:13:39.379Z,99114.00
2022-09-27T10:18:46.300Z,99119.40
2022-09-27T10:24:18.184Z,99110.40
2022-09-27T10:29:39.276Z,99117.60
2022-09-27T10:34:46.146Z,99100.00
2022-09-27T10:39:47.456Z,99090.00
2022-09-27T10:44:47.841Z,99085.20
2022-09-27T10:49:53.869Z,99076.40
2022-09-27T10:55:22.526Z,99079.40
2022-09-27T11:00:31.642Z,99079.60
2022-09-27T11:05:40.617Z,99084.00
2022-09-27T11:10:41.561Z,99076.40
2022-09-27T11:15:58.847Z,99068.60
2022-09-27T11:21:15.247Z,99067.40
2022-09-27T11:26:36.980Z,99058.00
2022-09-27T11:31:50.338Z,99047.60
2022-09-27T11:37:12.752Z,99050.60
2022-09-27T11:42:43.042Z,99043.40
2022-09-27T11:47:57.316Z,99036.40
2022-09-27T11:53:19.570Z,99035.80
2022-09-27T11:58:42.759Z,99032.40
2022-09-27T12:04:28.676Z,99033.60
2022-09-27T12:09:36.093Z,99029.00
2022-09-27T12:14:44.170Z,99040.60
2022-09-27T12:19:51.134Z,99036.80
2022-09-27T12:24:54.036Z,99026.20
2022-09-27T12:30:19.222Z,99026.00
2022-09-27T12:35:24.665Z,99017.00
2022-09-27T12:40:31.751Z,99011.40
2022-09-27T12:45:51.306Z,99011.20
2022-09-27T12:51:02.966Z,99010.60
2022-09-27T12:56:26.175Z,99005.00
2022-09-27T13:01:45.913Z,99004.20
2022-09-27T13:07:09.687Z,98999.80
2022-09-27T13:12:14.482Z,99000.20
2022-09-27T13:17:51.736Z,98996.80
2022-09-27T13:23:54.505Z,98989.60
2022-09-27T13:29:24.630Z,98986.40
2022-09-27T13:39:48.125Z,98970.60
2022-09-27T13:45:29.558Z,98965.00
2022-09-27T13:50:37.042Z,98964.60
2022-09-27T13:55:51.232Z,98962.60
2022-09-27T14:01:17.742Z,98956.40
2022-09-27T14:06:22.792Z,98949.40
2022-09-27T14:11:26.283Z,98950.80
2022-09-27T14:16:26.937Z,98947.60
2022-09-27T14:21:35.040Z,98939.20
2022-09-27T14:26:50.754Z,98929.80
2022-09-27T14:32:04.774Z,98928.20
2022-09-27T14:37:38.165Z,98920.80
2022-09-27T14:42:43.369Z,98925.60
2022-09-27T14:47:53.093Z,98920.00
2022-09-27T14:52:56.387Z,98921.00
2022-09-27T14:57:59.038Z,98914.80
2022-09-27T15:03:00.970Z,98920.40
2022-09-27T15:08:05.900Z,98921.00
2022-09-27T15:13:07.692Z,98920.40
2022-09-27T15:18:21.103Z,98924.20
2022-09-27T15:23:36.387Z,98923.00
2022-09-27T15:28:50.265Z,98921.00
2022-09-27T15:33:59.210Z,98917.80
2022-09-27T15:39:18.530Z,98923.00
2022-09-27T15:44:47.582Z,98917.20
2022-09-27T15:49:46.454Z,98907.80
2022-09-27T15:54:45.577Z,98900.20
2022-09-27T15:59:44.430Z,98895.20
2022-09-27T16:04:43.259Z,98898.80
2022-09-27T16:09:43.633Z,98899.80
2022-09-27T16:14:42.797Z,98893.00
2022-09-27T16:19:41.044Z,98888.20
2022-09-27T16:24:39.809Z,98890.20
2022-09-27T16:29:43.519Z,98892.80
2022-09-27T16:34:43.957Z,98894.20
2022-09-27T16:39:42.928Z,98891.20
2022-09-27T16:44:41.893Z,98894.00
2022-09-27T16:49:58.403Z,98894.80
2022-09-27T16:54:56.902Z,98893.40
2022-09-27T16:59:56.499Z,98896.00
2022-09-27T17:05:00.241Z,98890.80
2022-09-27T17:10:00.123Z,98895.80
2022-09-27T17:14:59.951Z,98893.60
2022-09-27T17:20:01.643Z,98889.20
2022-09-27T17:25:01.273Z,98898.40
2022-09-27T17:30:00.768Z,98901.00
2022-09-27T17:34:59.732Z,98908.40
2022-09-27T17:39:59.758Z,98909.80
2022-09-27T17:45:00.228Z,98906.20
2022-09-27T17:50:17.177Z,98900.40
2022-09-27T17:55:16.687Z,98902.80
2022-09-27T18:00:17.772Z,98902.40
2022-09-27T18:05:18.613Z,98898.40
2022-09-27T18:10:18.764Z,98901.80
2022-09-27T18:15:20.451Z,98903.00
2022-09-27T18:20:20.102Z,98895.80
2022-09-27T18:25:21.260Z,98896.40
2022-09-27T18:30:20.525Z,98894.80
2022-09-27T18:35:21.302Z,98894.20
2022-09-27T18:40:38.129Z,98894.20
2022-09-27T18:45:41.798Z,98899.60
2022-09-27T18:50:41.702Z,98898.00
2022-09-27T18:55:43.466Z,98895.80
2022-09-27T19:00:44.392Z,98891.60
2022-09-27T19:05:43.952Z,98895.00
2022-09-27T19:10:42.900Z,98897.80
2022-09-27T19:15:43.509Z,98896.40
2022-09-27T19:20:43.175Z,98895.60
2022-09-27T19:25:45.018Z,98897.80
2022-09-27T19:30:47.137Z,98894.00
2022-09-27T19:35:46.810Z,98889.60
2022-09-27T19:40:54.293Z,98883.80
2022-09-27T19:45:53.415Z,98882.20
2022-09-27T19:51:02.092Z,98875.20
2022-09-27T19:56:08.143Z,98861.80
2022-09-27T20:01:10.242Z,98865.40
2022-09-27T20:06:12.783Z,98860.60
2022-09-27T20:11:14.847Z,98855.60
2022-09-27T20:16:17.415Z,98850.20
2022-09-27T20:21:18.521Z,98848.60
2022-09-27T20:26:24.675Z,98837.40
2022-09-27T20:31:27.744Z,98830.00
2022-09-27T20:36:29.759Z,98826.00
2022-09-27T20:41:31.939Z,98826.20
2022-09-27T20:46:32.005Z,98830.60
2022-09-27T20:51:33.690Z,98829.00
2022-09-27T20:56:36.499Z,98829.60
2022-09-27T21:01:36.807Z,98840.20
2022-09-27T21:06:36.562Z,98839.20
2022-09-27T21:11:36.547Z,98836.20
2022-09-27T21:16:37.946Z,98830.40
2022-09-27T21:21:37.222Z,98821.20
2022-09-27T21:26:36.723Z,98808.60
2022-09-27T21:31:38.095Z,98808.80
2022-09-27T21:36:40.417Z,98810.00
2022-09-27T21:41:39.882Z,98811.60
2022-09-27T21:46:42.008Z,98813.40
2022-09-27T21:51:44.661Z,98821.60
2022-09-27T21:56:47.353Z,98824.20
2022-09-27T22:01:48.405Z,98826.00
2022-09-27T22:06:47.533Z,98801.20
2022-09-27T22:11:47.935Z,98805.40
2022-09-27T22:16:47.468Z,98788.60
2022-09-27T22:21:47.500Z,98789.00
2022-09-27T22:26:50.756Z,98783.00
2022-09-27T22:31:50.253Z,98780.40
2022-09-27T22:36:49.363Z,98777.80
2022-09-27T22:41:48.531Z,98774.80
2022-09-27T22:46:48.968Z,98772.40
2022-09-27T22:51:48.726Z,98765.60
2022-09-27T22:56:47.834Z,98762.60
2022-09-27T23:01:47.043Z,98755.40
2022-09-27T23:06:46.361Z,98752.60
2022-09-27T23:11:45.205Z,98741.00
2022-09-27T23:16:44.793Z,98744.00
2022-09-27T23:21:44.262Z,98736.60
2022-09-27T23:26:43.366Z,98733.80
2022-09-27T23:31:42.659Z,98726.40
2022-09-27T23:36:41.919Z,98721.80
2022-09-27T23:41:42.217Z,98733.20
2022-09-27T23:46:41.842Z,98733.40
2022-09-27T23:51:42.673Z,98734.00
2022-09-27T23:56:41.809Z,98727.60
